sensor_id;sensor_type;location;lat;lon;timestamp;temperature;humidity
66873;HTU21D;53781;51.090;5.884;2022-08-21T00:00:18;18.59;70.09
66873;HTU21D;53781;51.090;5.884;2022-08-21T00:00:33;18.58;70.13
66873;HTU21D;53781;51.090;5.884;2022-08-21T00:00:48;18.58;70.13
66873;HTU21D;53781;51.090;5.884;2022-08-21T00:01:07;18.58;70.13
66873;HTU21D;53781;51.090;5.884;2022-08-21T00:01:27;18.57;70.07
66873;HTU21D;53781;51.090;5.884;2022-08-21T00:01:43;18.58;70.13
66873;HTU21D;53781;51.090;5.884;2022-08-21T00:01:58;18.58;70.10
66873;HTU21D;53781;51.090;5.884;2022-08-21T00:02:15;18.58;70.08
66873;HTU21D;53781;51.090;5.884;2022-08-21T00:02:30;18.56;70.06
66873;HTU21D;53781;51.090;5.884;2022-08-21T00:02:51;18.57;70.01
66873;HTU21D;53781;51.090;5.884;2022-08-21T00:03:09;18.56;70.02
66873;HTU21D;53781;51.090;5.884;2022-08-21T00:03:24;18.56;70.02
66873;HTU21D;53781;51.090;5.884;2022-08-21T00:03:39;18.56;69.94
66873;HTU21D;53781;51.090;5.884;2022-08-21T00:03:55;18.55;69.94
66873;HTU21D;53781;51.090;5.884;2022-08-21T00:04:11;18.55;69.91
66873;HTU21D;53781;51.090;5.884;2022-08-21T00:04:26;18.53;69.88
66873;HTU21D;53781;51.090;5.884;2022-08-21T00:04:41;18.54;69.90
66873;HTU21D;53781;51.090;5.884;2022-08-21T00:04:56;18.52;69.85
66873;HTU21D;53781;51.090;5.884;2022-08-21T00:05:11;18.53;69.88
66873;HTU21D;53781;51.090;5.884;2022-08-21T00:05:27;18.51;69.91
66873;HTU21D;53781;51.090;5.884;2022-08-21T00:05:46;18.50;69.89
66873;HTU21D;53781;51.090;5.884;2022-08-21T00:06:02;18.50;69.91
66873;HTU21D;53781;51.090;5.884;2022-08-21T00:06:17;18.49;69.87
66873;HTU21D;53781;51.090;5.884;2022-08-21T00:06:32;18.48;69.91
66873;HTU21D;53781;51.090;5.884;2022-08-21T00:06:50;18.46;69.94
66873;HTU21D;53781;51.090;5.884;2022-08-21T00:07:04;18.48;69.95
66873;HTU21D;53781;51.090;5.884;2022-08-21T00:07:20;18.47;69.97
66873;HTU21D;53781;51.090;5.884;2022-08-21T00:07:35;18.46;70.01
66873;HTU21D;53781;51.090;5.884;2022-08-21T00:07:51;18.46;70.10
66873;HTU21D;53781;51.090;5.884;2022-08-21T00:08:06;18.44;70.10
66873;HTU21D;53781;51.090;5.884;2022-08-21T00:08:21;18.42;70.13
66873;HTU21D;53781;51.090;5.884;2022-08-21T00:08:36;18.46;70.12
66873;HTU21D;53781;51.090;5.884;2022-08-21T00:08:51;18.44;70.20
66873;HTU21D;53781;51.090;5.884;2022-08-21T00:09:08;18.44;70.13
66873;HTU21D;53781;51.090;5.884;2022-08-21T00:09:23;18.42;70.11
66873;HTU21D;53781;51.090;5.884;2022-08-21T00:09:37;18.42;70.18
66873;HTU21D;53781;51.090;5.884;2022-08-21T00:09:53;18.41;70.17
66873;HTU21D;53781;51.090;5.884;2022-08-21T00:10:09;18.40;70.19
66873;HTU21D;53781;51.090;5.884;2022-08-21T00:10:25;18.40;70.19
66873;HTU21D;53781;51.090;5.884;2022-08-21T00:10:42;18.41;70.23
66873;HTU21D;53781;51.090;5.884;2022-08-21T00:10:57;18.41;70.23
66873;HTU21D;53781;51.090;5.884;2022-08-21T00:11:12;18.41;70.24
66873;HTU21D;53781;51.090;5.884;2022-08-21T00:11:27;18.41;70.26
66873;HTU21D;53781;51.090;5.884;2022-08-21T00:11:42;18.40;70.22
66873;HTU21D;53781;51.090;5.884;2022-08-21T00:11:57;18.41;70.20
66873;HTU21D;53781;51.090;5.884;2022-08-21T00:12:12;18.40;70.26
66873;HTU21D;53781;51.090;5.884;2022-08-21T00:12:27;18.41;70.21
66873;HTU21D;53781;51.090;5.884;2022-08-21T00:12:43;18.41;70.26
66873;HTU21D;53781;51.090;5.884;2022-08-21T00:13:00;18.40;70.23
66873;HTU21D;53781;51.090;5.884;2022-08-21T00:13:16;18.39;70.26
66873;HTU21D;53781;51.090;5.884;2022-08-21T00:13:32;18.40;70.26
66873;HTU21D;53781;51.090;5.884;2022-08-21T00:13:47;18.40;70.28
66873;HTU21D;53781;51.090;5.884;2022-08-21T00:14:04;18.39;70.23
66873;HTU21D;53781;51.090;5.884;2022-08-21T00:14:20;18.39;70.24
66873;HTU21D;53781;51.090;5.884;2022-08-21T00:14:35;18.39;70.23
66873;HTU21D;53781;51.090;5.884;2022-08-21T00:14:50;18.37;70.25
66873;HTU21D;53781;51.090;5.884;2022-08-21T00:15:08;18.38;70.21
66873;HTU21D;53781;51.090;5.884;2022-08-21T00:15:26;18.36;70.22
66873;HTU21D;53781;51.090;5.884;2022-08-21T00:15:41;18.37;70.22
66873;HTU21D;53781;51.090;5.884;2022-08-21T00:15:56;18.37;70.25
66873;HTU21D;53781;51.090;5.884;2022-08-21T00:16:11;18.37;70.22
66873;HTU21D;53781;51.090;5.884;2022-08-21T00:16:26;18.36;70.20
66873;HTU21D;53781;51.090;5.884;2022-08-21T00:16:41;18.36;70.24
66873;HTU21D;53781;51.090;5.884;2022-08-21T00:16:56;18.35;70.22
66873;HTU21D;53781;51.090;5.884;2022-08-21T00:17:11;18.35;70.23
66873;HTU21D;53781;51.090;5.884;2022-08-21T00:17:26;18.35;70.23
66873;HTU21D;53781;51.090;5.884;2022-08-21T00:17:40;18.35;70.31
66873;HTU21D;53781;51.090;5.884;2022-08-21T00:17:56;18.33;70.26
66873;HTU21D;53781;51.090;5.884;2022-08-21T00:18:11;18.33;70.32
66873;HTU21D;53781;51.090;5.884;2022-08-21T00:18:26;18.33;70.26
66873;HTU21D;53781;51.090;5.884;2022-08-21T00:18:41;18.33;70.26
66873;HTU21D;53781;51.090;5.884;2022-08-21T00:18:56;18.33;70.27
66873;HTU21D;53781;51.090;5.884;2022-08-21T00:19:11;18.33;70.31
66873;HTU21D;53781;51.090;5.884;2022-08-21T00:19:26;18.32;70.27
66873;HTU21D;53781;51.090;5.884;2022-08-21T00:19:41;18.32;70.32
66873;HTU21D;53781;51.090;5.884;2022-08-21T00:19:56;18.30;70.34
66873;HTU21D;53781;51.090;5.884;2022-08-21T00:20:14;18.29;70.34
66873;HTU21D;53781;51.090;5.884;2022-08-21T00:20:29;18.30;70.35
66873;HTU21D;53781;51.090;5.884;2022-08-21T00:20:46;18.30;70.37
66873;HTU21D;53781;51.090;5.884;2022-08-21T00:21:01;18.29;70.35
66873;HTU21D;53781;51.090;5.884;2022-08-21T00:21:16;18.29;70.35
66873;HTU21D;53781;51.090;5.884;2022-08-21T00:21:31;18.29;70.35
66873;HTU21D;53781;51.090;5.884;2022-08-21T00:21:46;18.28;70.26
66873;HTU21D;53781;51.090;5.884;2022-08-21T00:22:01;18.29;70.36
66873;HTU21D;53781;51.090;5.884;2022-08-21T00:22:16;18.29;70.29
66873;HTU21D;53781;51.090;5.884;2022-08-21T00:22:31;18.27;70.32
66873;HTU21D;53781;51.090;5.884;2022-08-21T00:22:46;18.27;70.30
66873;HTU21D;53781;51.090;5.884;2022-08-21T00:23:02;18.27;70.27
66873;HTU21D;53781;51.090;5.884;2022-08-21T00:23:17;18.27;70.32
66873;HTU21D;53781;51.090;5.884;2022-08-21T00:23:34;18.30;70.27
66873;HTU21D;53781;51.090;5.884;2022-08-21T00:23:49;18.27;70.30
66873;HTU21D;53781;51.090;5.884;2022-08-21T00:24:04;18.27;70.29
66873;HTU21D;53781;51.090;5.884;2022-08-21T00:24:21;18.26;70.32
66873;HTU21D;53781;51.090;5.884;2022-08-21T00:24:36;18.26;70.35
66873;HTU21D;53781;51.090;5.884;2022-08-21T00:24:50;18.26;70.36
66873;HTU21D;53781;51.090;5.884;2022-08-21T00:25:07;18.26;70.34
66873;HTU21D;53781;51.090;5.884;2022-08-21T00:25:22;18.26;70.35
66873;HTU21D;53781;51.090;5.884;2022-08-21T00:25:38;18.25;70.39
66873;HTU21D;53781;51.090;5.884;2022-08-21T00:25:52;18.25;70.40
66873;HTU21D;53781;51.090;5.884;2022-08-21T00:26:07;18.26;70.42
66873;HTU21D;53781;51.090;5.884;2022-08-21T00:26:22;18.24;70.37
66873;HTU21D;53781;51.090;5.884;2022-08-21T00:26:37;18.26;70.39
66873;HTU21D;53781;51.090;5.884;2022-08-21T00:26:52;18.24;70.38
66873;HTU21D;53781;51.090;5.884;2022-08-21T00:27:07;18.24;70.39
66873;HTU21D;53781;51.090;5.884;2022-08-21T00:27:22;18.24;70.42
66873;HTU21D;53781;51.090;5.884;2022-08-21T00:27:37;18.25;70.43
66873;HTU21D;53781;51.090;5.884;2022-08-21T00:27:53;18.23;70.41
66873;HTU21D;53781;51.090;5.884;2022-08-21T00:28:08;18.25;70.41
66873;HTU21D;53781;51.090;5.884;2022-08-21T00:28:23;18.24;70.45
66873;HTU21D;53781;51.090;5.884;2022-08-21T00:28:38;18.24;70.42
66873;HTU21D;53781;51.090;5.884;2022-08-21T00:28:52;18.25;70.42
66873;HTU21D;53781;51.090;5.884;2022-08-21T00:29:07;18.23;70.42
66873;HTU21D;53781;51.090;5.884;2022-08-21T00:29:22;18.25;70.45
66873;HTU21D;53781;51.090;5.884;2022-08-21T00:29:37;18.25;70.42
66873;HTU21D;53781;51.090;5.884;2022-08-21T00:29:52;18.24;70.44
66873;HTU21D;53781;51.090;5.884;2022-08-21T00:30:10;18.25;70.49
66873;HTU21D;53781;51.090;5.884;2022-08-21T00:30:26;18.24;70.40
66873;HTU21D;53781;51.090;5.884;2022-08-21T00:30:41;18.26;70.38
66873;HTU21D;53781;51.090;5.884;2022-08-21T00:30:58;18.26;70.38
66873;HTU21D;53781;51.090;5.884;2022-08-21T00:31:13;18.24;70.42
66873;HTU21D;53781;51.090;5.884;2022-08-21T00:31:27;18.24;70.35
66873;HTU21D;53781;51.090;5.884;2022-08-21T00:31:43;18.23;70.32
66873;HTU21D;53781;51.090;5.884;2022-08-21T00:31:58;18.24;70.35
66873;HTU21D;53781;51.090;5.884;2022-08-21T00:32:20;18.23;70.28
66873;HTU21D;53781;51.090;5.884;2022-08-21T00:32:37;18.23;70.30
66873;HTU21D;53781;51.090;5.884;2022-08-21T00:32:54;18.24;70.30
66873;HTU21D;53781;51.090;5.884;2022-08-21T00:33:11;18.24;70.35
66873;HTU21D;53781;51.090;5.884;2022-08-21T00:33:26;18.23;70.32
66873;HTU21D;53781;51.090;5.884;2022-08-21T00:33:41;18.23;70.27
66873;HTU21D;53781;51.090;5.884;2022-08-21T00:33:56;18.22;70.37
66873;HTU21D;53781;51.090;5.884;2022-08-21T00:34:12;18.22;70.30
66873;HTU21D;53781;51.090;5.884;2022-08-21T00:34:27;18.23;70.35
66873;HTU21D;53781;51.090;5.884;2022-08-21T00:34:42;18.22;70.42
66873;HTU21D;53781;51.090;5.884;2022-08-21T00:34:57;18.20;70.40
66873;HTU21D;53781;51.090;5.884;2022-08-21T00:35:15;18.20;70.39
66873;HTU21D;53781;51.090;5.884;2022-08-21T00:35:34;18.20;70.32
66873;HTU21D;53781;51.090;5.884;2022-08-21T00:35:49;18.18;70.32
66873;HTU21D;53781;51.090;5.884;2022-08-21T00:36:04;18.19;70.36
66873;HTU21D;53781;51.090;5.884;2022-08-21T00:36:19;18.19;70.33
66873;HTU21D;53781;51.090;5.884;2022-08-21T00:36:34;18.18;70.35
66873;HTU21D;53781;51.090;5.884;2022-08-21T00:36:49;18.17;70.39
66873;HTU21D;53781;51.090;5.884;2022-08-21T00:37:03;18.17;70.39
66873;HTU21D;53781;51.090;5.884;2022-08-21T00:37:19;18.15;70.43
66873;HTU21D;53781;51.090;5.884;2022-08-21T00:37:34;18.15;70.44
66873;HTU21D;53781;51.090;5.884;2022-08-21T00:37:49;18.17;70.49
66873;HTU21D;53781;51.090;5.884;2022-08-21T00:38:05;18.15;70.50
66873;HTU21D;53781;51.090;5.884;2022-08-21T00:38:20;18.14;70.48
66873;HTU21D;53781;51.090;5.884;2022-08-21T00:38:35;18.17;70.58
66873;HTU21D;53781;51.090;5.884;2022-08-21T00:38:50;18.14;70.58
66873;HTU21D;53781;51.090;5.884;2022-08-21T00:39:07;18.14;70.60
66873;HTU21D;53781;51.090;5.884;2022-08-21T00:39:22;18.17;70.62
66873;HTU21D;53781;51.090;5.884;2022-08-21T00:39:37;18.14;70.64
66873;HTU21D;53781;51.090;5.884;2022-08-21T00:39:52;18.13;70.61
66873;HTU21D;53781;51.090;5.884;2022-08-21T00:40:12;18.14;70.61
66873;HTU21D;53781;51.090;5.884;2022-08-21T00:40:33;18.13;70.62
66873;HTU21D;53781;51.090;5.884;2022-08-21T00:40:52;18.12;70.64
66873;HTU21D;53781;51.090;5.884;2022-08-21T00:41:10;18.14;70.63
66873;HTU21D;53781;51.090;5.884;2022-08-21T00:41:25;18.12;70.62
66873;HTU21D;53781;51.090;5.884;2022-08-21T00:41:41;18.13;70.64
66873;HTU21D;53781;51.090;5.884;2022-08-21T00:41:56;18.13;70.67
66873;HTU21D;53781;51.090;5.884;2022-08-21T00:42:11;18.11;70.61
66873;HTU21D;53781;51.090;5.884;2022-08-21T00:42:29;18.13;70.69
66873;HTU21D;53781;51.090;5.884;2022-08-21T00:42:44;18.14;70.63
66873;HTU21D;53781;51.090;5.884;2022-08-21T00:43:02;18.12;70.64
66873;HTU21D;53781;51.090;5.884;2022-08-21T00:43:23;18.12;70.71
66873;HTU21D;53781;51.090;5.884;2022-08-21T00:43:39;18.10;70.67
66873;HTU21D;53781;51.090;5.884;2022-08-21T00:43:55;18.12;70.69
66873;HTU21D;53781;51.090;5.884;2022-08-21T00:44:12;18.11;70.70
66873;HTU21D;53781;51.090;5.884;2022-08-21T00:44:27;18.11;70.68
66873;HTU21D;53781;51.090;5.884;2022-08-21T00:44:44;18.10;70.64
66873;HTU21D;53781;51.090;5.884;2022-08-21T00:44:59;18.10;70.64
66873;HTU21D;53781;51.090;5.884;2022-08-21T00:45:14;18.10;70.64
66873;HTU21D;53781;51.090;5.884;2022-08-21T00:45:30;18.11;70.63
66873;HTU21D;53781;51.090;5.884;2022-08-21T00:45:46;18.08;70.65
66873;HTU21D;53781;51.090;5.884;2022-08-21T00:46:03;18.08;70.62
66873;HTU21D;53781;51.090;5.884;2022-08-21T00:46:19;18.10;70.68
66873;HTU21D;53781;51.090;5.884;2022-08-21T00:46:34;18.07;70.61
66873;HTU21D;53781;51.090;5.884;2022-08-21T00:46:49;18.06;70.66
66873;HTU21D;53781;51.090;5.884;2022-08-21T00:47:04;18.08;70.61
66873;HTU21D;53781;51.090;5.884;2022-08-21T00:47:19;18.07;70.61
66873;HTU21D;53781;51.090;5.884;2022-08-21T00:47:34;18.07;70.60
66873;HTU21D;53781;51.090;5.884;2022-08-21T00:47:51;18.05;70.59
66873;HTU21D;53781;51.090;5.884;2022-08-21T00:48:06;18.06;70.64
66873;HTU21D;53781;51.090;5.884;2022-08-21T00:48:22;18.06;70.65
66873;HTU21D;53781;51.090;5.884;2022-08-21T00:48:37;18.05;70.64
66873;HTU21D;53781;51.090;5.884;2022-08-21T00:48:52;18.07;70.68
66873;HTU21D;53781;51.090;5.884;2022-08-21T00:49:09;18.08;70.51
66873;HTU21D;53781;51.090;5.884;2022-08-21T00:49:24;18.09;70.51
66873;HTU21D;53781;51.090;5.884;2022-08-21T00:49:39;18.07;70.58
66873;HTU21D;53781;51.090;5.884;2022-08-21T00:49:54;18.05;70.58
66873;HTU21D;53781;51.090;5.884;2022-08-21T00:50:10;18.06;70.64
66873;HTU21D;53781;51.090;5.884;2022-08-21T00:50:31;18.04;70.64
66873;HTU21D;53781;51.090;5.884;2022-08-21T00:51:17;18.02;70.67
66873;HTU21D;53781;51.090;5.884;2022-08-21T00:51:47;18.02;70.70
66873;HTU21D;53781;51.090;5.884;2022-08-21T00:52:07;17.99;70.74
66873;HTU21D;53781;51.090;5.884;2022-08-21T00:52:25;17.98;70.71
66873;HTU21D;53781;51.090;5.884;2022-08-21T00:52:41;17.98;70.79
66873;HTU21D;53781;51.090;5.884;2022-08-21T00:52:57;17.99;70.81
66873;HTU21D;53781;51.090;5.884;2022-08-21T00:53:13;17.98;70.87
66873;HTU21D;53781;51.090;5.884;2022-08-21T00:53:29;17.99;70.89
66873;HTU21D;53781;51.090;5.884;2022-08-21T00:53:46;17.99;70.88
66873;HTU21D;53781;51.090;5.884;2022-08-21T00:54:01;17.99;70.86
66873;HTU21D;53781;51.090;5.884;2022-08-21T00:54:21;17.99;70.94
66873;HTU21D;53781;51.090;5.884;2022-08-21T00:54:39;17.98;70.95
66873;HTU21D;53781;51.090;5.884;2022-08-21T00:54:57;17.99;70.93
66873;HTU21D;53781;51.090;5.884;2022-08-21T00:55:13;17.99;70.93
66873;HTU21D;53781;51.090;5.884;2022-08-21T00:55:30;17.98;70.97
66873;HTU21D;53781;51.090;5.884;2022-08-21T00:55:46;17.98;70.91
66873;HTU21D;53781;51.090;5.884;2022-08-21T00:56:03;17.98;70.96
66873;HTU21D;53781;51.090;5.884;2022-08-21T00:56:21;17.98;70.96
66873;HTU21D;53781;51.090;5.884;2022-08-21T00:56:36;17.99;71.03
66873;HTU21D;53781;51.090;5.884;2022-08-21T00:56:57;17.99;71.07
66873;HTU21D;53781;51.090;5.884;2022-08-21T00:57:17;17.97;71.13
66873;HTU21D;53781;51.090;5.884;2022-08-21T00:57:42;17.97;71.08
66873;HTU21D;53781;51.090;5.884;2022-08-21T00:58:03;17.97;71.13
66873;HTU21D;53781;51.090;5.884;2022-08-21T00:58:18;17.98;71.18
66873;HTU21D;53781;51.090;5.884;2022-08-21T00:58:35;17.97;71.21
66873;HTU21D;53781;51.090;5.884;2022-08-21T00:58:52;17.99;71.27
66873;HTU21D;53781;51.090;5.884;2022-08-21T00:59:09;17.99;71.22
66873;HTU21D;53781;51.090;5.884;2022-08-21T00:59:25;17.97;71.16
66873;HTU21D;53781;51.090;5.884;2022-08-21T00:59:45;17.99;71.13
66873;HTU21D;53781;51.090;5.884;2022-08-21T01:00:07;17.99;71.14
66873;HTU21D;53781;51.090;5.884;2022-08-21T01:00:31;17.99;71.14
66873;HTU21D;53781;51.090;5.884;2022-08-21T01:00:48;17.98;71.18
66873;HTU21D;53781;51.090;5.884;2022-08-21T01:01:05;17.99;71.19
66873;HTU21D;53781;51.090;5.884;2022-08-21T01:01:21;17.98;71.13
66873;HTU21D;53781;51.090;5.884;2022-08-21T01:01:36;17.99;71.12
66873;HTU21D;53781;51.090;5.884;2022-08-21T01:01:51;17.99;71.10
66873;HTU21D;53781;51.090;5.884;2022-08-21T01:02:08;18.02;71.17
66873;HTU21D;53781;51.090;5.884;2022-08-21T01:02:23;17.99;71.18
66873;HTU21D;53781;51.090;5.884;2022-08-21T01:02:39;17.98;71.22
66873;HTU21D;53781;51.090;5.884;2022-08-21T01:02:56;17.99;71.16
66873;HTU21D;53781;51.090;5.884;2022-08-21T01:03:18;17.99;71.13
66873;HTU21D;53781;51.090;5.884;2022-08-21T01:03:34;17.97;71.13
66873;HTU21D;53781;51.090;5.884;2022-08-21T01:03:49;17.98;71.09
66873;HTU21D;53781;51.090;5.884;2022-08-21T01:04:04;17.96;71.13
66873;HTU21D;53781;51.090;5.884;2022-08-21T01:04:20;17.97;71.14
66873;HTU21D;53781;51.090;5.884;2022-08-21T01:04:36;17.97;71.13
66873;HTU21D;53781;51.090;5.884;2022-08-21T01:04:51;17.95;71.13
66873;HTU21D;53781;51.090;5.884;2022-08-21T01:05:06;17.97;71.13
66873;HTU21D;53781;51.090;5.884;2022-08-21T01:05:21;17.95;71.10
66873;HTU21D;53781;51.090;5.884;2022-08-21T01:05:36;17.95;71.14
66873;HTU21D;53781;51.090;5.884;2022-08-21T01:05:52;17.97;71.13
66873;HTU21D;53781;51.090;5.884;2022-08-21T01:06:07;17.95;71.16
66873;HTU21D;53781;51.090;5.884;2022-08-21T01:06:23;17.93;71.10
66873;HTU21D;53781;51.090;5.884;2022-08-21T01:06:37;17.93;71.08
66873;HTU21D;53781;51.090;5.884;2022-08-21T01:06:53;17.94;71.10
66873;HTU21D;53781;51.090;5.884;2022-08-21T01:07:09;17.93;71.05
66873;HTU21D;53781;51.090;5.884;2022-08-21T01:07:25;17.93;70.99
66873;HTU21D;53781;51.090;5.884;2022-08-21T01:07:41;17.91;71.04
66873;HTU21D;53781;51.090;5.884;2022-08-21T01:07:56;17.93;71.02
66873;HTU21D;53781;51.090;5.884;2022-08-21T01:08:16;17.91;71.03
66873;HTU21D;53781;51.090;5.884;2022-08-21T01:08:33;17.92;71.10
66873;HTU21D;53781;51.090;5.884;2022-08-21T01:08:48;17.90;71.13
66873;HTU21D;53781;51.090;5.884;2022-08-21T01:09:03;17.90;71.13
66873;HTU21D;53781;51.090;5.884;2022-08-21T01:09:19;17.90;71.10
66873;HTU21D;53781;51.090;5.884;2022-08-21T01:09:35;17.90;71.10
66873;HTU21D;53781;51.090;5.884;2022-08-21T01:09:50;17.90;71.10
66873;HTU21D;53781;51.090;5.884;2022-08-21T01:10:06;17.90;71.06
66873;HTU21D;53781;51.090;5.884;2022-08-21T01:10:22;17.89;71.05
66873;HTU21D;53781;51.090;5.884;2022-08-21T01:10:38;17.88;71.04
66873;HTU21D;53781;51.090;5.884;2022-08-21T01:10:53;17.90;71.06
66873;HTU21D;53781;51.090;5.884;2022-08-21T01:11:15;17.89;71.00
66873;HTU21D;53781;51.090;5.884;2022-08-21T01:11:31;17.90;71.10
66873;HTU21D;53781;51.090;5.884;2022-08-21T01:11:46;17.88;71.03
66873;HTU21D;53781;51.090;5.884;2022-08-21T01:12:01;17.88;71.00
66873;HTU21D;53781;51.090;5.884;2022-08-21T01:12:16;17.88;71.06
66873;HTU21D;53781;51.090;5.884;2022-08-21T01:12:33;17.89;71.08
66873;HTU21D;53781;51.090;5.884;2022-08-21T01:12:51;17.87;71.02
66873;HTU21D;53781;51.090;5.884;2022-08-21T01:13:09;17.85;70.97
66873;HTU21D;53781;51.090;5.884;2022-08-21T01:13:26;17.87;71.03
66873;HTU21D;53781;51.090;5.884;2022-08-21T01:13:43;17.85;71.00
66873;HTU21D;53781;51.090;5.884;2022-08-21T01:14:01;17.85;70.97
66873;HTU21D;53781;51.090;5.884;2022-08-21T01:14:16;17.84;71.01
66873;HTU21D;53781;51.090;5.884;2022-08-21T01:14:33;17.84;71.00
66873;HTU21D;53781;51.090;5.884;2022-08-21T01:14:48;17.83;71.01
66873;HTU21D;53781;51.090;5.884;2022-08-21T01:15:05;17.84;71.01
66873;HTU21D;53781;51.090;5.884;2022-08-21T01:15:23;17.83;71.03
66873;HTU21D;53781;51.090;5.884;2022-08-21T01:15:44;17.82;70.98
66873;HTU21D;53781;51.090;5.884;2022-08-21T01:16:03;17.80;71.02
66873;HTU21D;53781;51.090;5.884;2022-08-21T01:16:21;17.81;71.03
66873;HTU21D;53781;51.090;5.884;2022-08-21T01:16:36;17.81;71.06
66873;HTU21D;53781;51.090;5.884;2022-08-21T01:16:53;17.80;71.10
66873;HTU21D;53781;51.090;5.884;2022-08-21T01:17:11;17.80;71.10
66873;HTU21D;53781;51.090;5.884;2022-08-21T01:17:27;17.79;71.05
66873;HTU21D;53781;51.090;5.884;2022-08-21T01:17:42;17.78;71.08
66873;HTU21D;53781;51.090;5.884;2022-08-21T01:17:57;17.79;71.11
66873;HTU21D;53781;51.090;5.884;2022-08-21T01:18:13;17.78;71.10
66873;HTU21D;53781;51.090;5.884;2022-08-21T01:18:29;17.75;71.08
66873;HTU21D;53781;51.090;5.884;2022-08-21T01:18:45;17.76;71.10
66873;HTU21D;53781;51.090;5.884;2022-08-21T01:19:02;17.76;71.06
66873;HTU21D;53781;51.090;5.884;2022-08-21T01:19:20;17.76;71.08
66873;HTU21D;53781;51.090;5.884;2022-08-21T01:19:35;17.74;71.06
66873;HTU21D;53781;51.090;5.884;2022-08-21T01:19:50;17.75;71.10
66873;HTU21D;53781;51.090;5.884;2022-08-21T01:20:08;17.72;71.13
66873;HTU21D;53781;51.090;5.884;2022-08-21T01:20:24;17.73;71.15
66873;HTU21D;53781;51.090;5.884;2022-08-21T01:21:05;17.73;71.13
66873;HTU21D;53781;51.090;5.884;2022-08-21T01:21:24;17.70;71.16
66873;HTU21D;53781;51.090;5.884;2022-08-21T01:21:39;17.72;71.16
66873;HTU21D;53781;51.090;5.884;2022-08-21T01:21:54;17.73;71.21
66873;HTU21D;53781;51.090;5.884;2022-08-21T01:22:09;17.73;71.19
66873;HTU21D;53781;51.090;5.884;2022-08-21T01:22:24;17.73;71.28
66873;HTU21D;53781;51.090;5.884;2022-08-21T01:22:39;17.72;71.26
66873;HTU21D;53781;51.090;5.884;2022-08-21T01:22:54;17.72;71.32
66873;HTU21D;53781;51.090;5.884;2022-08-21T01:23:09;17.70;71.32
66873;HTU21D;53781;51.090;5.884;2022-08-21T01:23:23;17.73;71.30
66873;HTU21D;53781;51.090;5.884;2022-08-21T01:23:43;17.72;71.34
66873;HTU21D;53781;51.090;5.884;2022-08-21T01:23:58;17.70;71.33
66873;HTU21D;53781;51.090;5.884;2022-08-21T01:24:14;17.73;71.35
66873;HTU21D;53781;51.090;5.884;2022-08-21T01:24:29;17.73;71.31
66873;HTU21D;53781;51.090;5.884;2022-08-21T01:24:45;17.72;71.37
66873;HTU21D;53781;51.090;5.884;2022-08-21T01:25:04;17.72;71.38
66873;HTU21D;53781;51.090;5.884;2022-08-21T01:25:19;17.72;71.36
66873;HTU21D;53781;51.090;5.884;2022-08-21T01:25:36;17.72;71.35
66873;HTU21D;53781;51.090;5.884;2022-08-21T01:25:51;17.72;71.33
66873;HTU21D;53781;51.090;5.884;2022-08-21T01:26:07;17.72;71.37
66873;HTU21D;53781;51.090;5.884;2022-08-21T01:26:27;17.72;71.40
66873;HTU21D;53781;51.090;5.884;2022-08-21T01:26:44;17.72;71.42
66873;HTU21D;53781;51.090;5.884;2022-08-21T01:27:00;17.69;71.46
66873;HTU21D;53781;51.090;5.884;2022-08-21T01:27:14;17.70;71.41
66873;HTU21D;53781;51.090;5.884;2022-08-21T01:27:29;17.69;71.42
66873;HTU21D;53781;51.090;5.884;2022-08-21T01:27:44;17.69;71.48
66873;HTU21D;53781;51.090;5.884;2022-08-21T01:28:04;17.70;71.42
66873;HTU21D;53781;51.090;5.884;2022-08-21T01:28:22;17.70;71.44
66873;HTU21D;53781;51.090;5.884;2022-08-21T01:28:46;17.69;71.43
66873;HTU21D;53781;51.090;5.884;2022-08-21T01:29:58;17.65;71.59
66873;HTU21D;53781;51.090;5.884;2022-08-21T01:30:22;17.66;71.57
66873;HTU21D;53781;51.090;5.884;2022-08-21T01:30:40;17.67;71.66
66873;HTU21D;53781;51.090;5.884;2022-08-21T01:30:57;17.67;71.69
66873;HTU21D;53781;51.090;5.884;2022-08-21T01:31:14;17.66;71.73
66873;HTU21D;53781;51.090;5.884;2022-08-21T01:31:31;17.66;71.67
66873;HTU21D;53781;51.090;5.884;2022-08-21T01:31:47;17.66;71.72
66873;HTU21D;53781;51.090;5.884;2022-08-21T01:32:14;17.66;71.81
66873;HTU21D;53781;51.090;5.884;2022-08-21T01:32:30;17.67;71.85
66873;HTU21D;53781;51.090;5.884;2022-08-21T01:32:47;17.67;71.93
66873;HTU21D;53781;51.090;5.884;2022-08-21T01:33:03;17.67;71.93
66873;HTU21D;53781;51.090;5.884;2022-08-21T01:33:20;17.67;71.93
66873;HTU21D;53781;51.090;5.884;2022-08-21T01:33:37;17.69;71.96
66873;HTU21D;53781;51.090;5.884;2022-08-21T01:33:52;17.68;71.96
66873;HTU21D;53781;51.090;5.884;2022-08-21T01:34:08;17.69;71.92
66873;HTU21D;53781;51.090;5.884;2022-08-21T01:34:23;17.69;71.92
66873;HTU21D;53781;51.090;5.884;2022-08-21T01:34:41;17.72;71.87
66873;HTU21D;53781;51.090;5.884;2022-08-21T01:34:57;17.72;71.92
66873;HTU21D;53781;51.090;5.884;2022-08-21T01:35:14;17.69;71.87
66873;HTU21D;53781;51.090;5.884;2022-08-21T01:35:29;17.72;71.90
66873;HTU21D;53781;51.090;5.884;2022-08-21T01:35:43;17.69;71.91
66873;HTU21D;53781;51.090;5.884;2022-08-21T01:35:58;17.72;71.92
66873;HTU21D;53781;51.090;5.884;2022-08-21T01:36:13;17.72;71.86
66873;HTU21D;53781;51.090;5.884;2022-08-21T01:36:28;17.72;71.85
66873;HTU21D;53781;51.090;5.884;2022-08-21T01:36:45;17.70;71.90
66873;HTU21D;53781;51.090;5.884;2022-08-21T01:37:00;17.73;71.90
66873;HTU21D;53781;51.090;5.884;2022-08-21T01:37:16;17.73;71.96
66873;HTU21D;53781;51.090;5.884;2022-08-21T01:37:31;17.72;72.01
66873;HTU21D;53781;51.090;5.884;2022-08-21T01:37:47;17.72;72.01
66873;HTU21D;53781;51.090;5.884;2022-08-21T01:38:03;17.74;71.98
66873;HTU21D;53781;51.090;5.884;2022-08-21T01:38:17;17.74;71.94
66873;HTU21D;53781;51.090;5.884;2022-08-21T01:38:33;17.73;71.98
66873;HTU21D;53781;51.090;5.884;2022-08-21T01:38:48;17.73;71.95
66873;HTU21D;53781;51.090;5.884;2022-08-21T01:39:04;17.75;72.00
66873;HTU21D;53781;51.090;5.884;2022-08-21T01:39:19;17.76;71.97
66873;HTU21D;53781;51.090;5.884;2022-08-21T01:39:34;17.76;71.94
66873;HTU21D;53781;51.090;5.884;2022-08-21T01:39:50;17.77;71.95
66873;HTU21D;53781;51.090;5.884;2022-08-21T01:40:06;17.76;71.94
66873;HTU21D;53781;51.090;5.884;2022-08-21T01:40:21;17.76;71.96
66873;HTU21D;53781;51.090;5.884;2022-08-21T01:40:36;17.77;71.97
66873;HTU21D;53781;51.090;5.884;2022-08-21T01:40:51;17.78;71.91
66873;HTU21D;53781;51.090;5.884;2022-08-21T01:41:06;17.79;71.95
66873;HTU21D;53781;51.090;5.884;2022-08-21T01:41:21;17.80;71.92
66873;HTU21D;53781;51.090;5.884;2022-08-21T01:41:36;17.81;71.91
66873;HTU21D;53781;51.090;5.884;2022-08-21T01:41:51;17.80;71.82
66873;HTU21D;53781;51.090;5.884;2022-08-21T01:42:06;17.82;71.76
66873;HTU21D;53781;51.090;5.884;2022-08-21T01:42:21;17.82;71.71
66873;HTU21D;53781;51.090;5.884;2022-08-21T01:42:38;17.82;71.64